createdAt,value
2018-02-13T00:02:14.749Z,9.67
2018-02-13T00:04:42.993Z,11.87
2018-02-13T00:07:11.828Z,11.90
2018-02-13T00:09:40.090Z,11.57
2018-02-13T00:12:08.353Z,10.73
2018-02-13T00:14:36.613Z,13.73
2018-02-13T00:17:05.429Z,9.50
2018-02-13T00:19:33.671Z,13.67
2018-02-13T00:22:01.921Z,9.60
2018-02-13T00:24:30.167Z,13.20
2018-02-13T00:26:58.422Z,12.00
2018-02-13T00:29:26.667Z,7.90
2018-02-13T00:31:54.909Z,10.20
2018-02-13T00:34:23.167Z,9.10
2018-02-13T00:36:51.467Z,9.90
2018-02-13T00:39:20.133Z,8.93
2018-02-13T00:41:48.388Z,8.53
2018-02-13T00:44:16.626Z,10.37
2018-02-13T00:46:44.899Z,11.63
2018-02-13T00:49:13.156Z,11.80
2018-02-13T00:51:42.137Z,11.90
2018-02-13T00:54:11.174Z,14.40
2018-02-13T00:56:39.429Z,11.80
2018-02-13T00:59:07.681Z,11.70
2018-02-13T01:01:35.938Z,11.43
2018-02-13T01:04:04.185Z,12.37
2018-02-13T01:06:32.430Z,13.07
2018-02-13T01:09:00.681Z,9.60
2018-02-13T01:11:29.574Z,13.63
2018-02-13T01:13:58.539Z,10.97
2018-02-13T01:16:26.798Z,15.53
2018-02-13T01:18:55.055Z,12.23
2018-02-13T01:21:23.305Z,12.77
2018-02-13T01:23:52.350Z,13.17
2018-02-13T01:26:20.754Z,8.80
2018-02-13T01:28:49.022Z,12.67
2018-02-13T01:31:17.268Z,14.50
2018-02-13T01:33:45.532Z,12.83
2018-02-13T01:36:13.784Z,12.43
2018-02-13T01:38:42.048Z,13.27
2018-02-13T01:41:10.293Z,11.43
2018-02-13T01:43:38.545Z,10.80
2018-02-13T01:46:06.794Z,11.60
2018-02-13T01:48:35.702Z,11.67
2018-02-13T01:51:03.950Z,11.90
2018-02-13T01:53:32.808Z,9.93
2018-02-13T01:56:01.085Z,12.00
2018-02-13T01:58:29.341Z,9.27
2018-02-13T02:00:57.592Z,12.50
2018-02-13T02:03:25.884Z,11.97
2018-02-13T02:05:55.021Z,10.97
2018-02-13T02:08:23.281Z,13.57
2018-02-13T02:10:52.817Z,14.50
2018-02-13T02:13:21.067Z,14.40
2018-02-13T02:15:49.324Z,11.30
2018-02-13T02:18:17.737Z,13.60
2018-02-13T02:20:45.985Z,12.37
2018-02-13T02:23:14.231Z,9.80
2018-02-13T02:25:42.511Z,11.03
2018-02-13T02:28:11.096Z,12.97
2018-02-13T02:30:39.362Z,11.03
2018-02-13T02:33:07.606Z,12.03
2018-02-13T02:35:35.862Z,10.90
2018-02-13T02:38:04.105Z,10.60
2018-02-13T02:40:32.346Z,8.87
2018-02-13T02:43:05.537Z,11.33
2018-02-13T02:45:33.790Z,11.03
2018-02-13T02:48:02.376Z,7.90
2018-02-13T02:50:30.609Z,8.10
2018-02-13T02:52:58.864Z,11.00
2018-02-13T02:55:27.113Z,12.43
2018-02-13T02:57:55.353Z,9.70
2018-02-13T03:00:23.721Z,12.00
2018-02-13T03:02:51.985Z,10.10
2018-02-13T03:05:20.238Z,15.93
2018-02-13T03:07:48.497Z,10.23
2018-02-13T03:10:16.791Z,17.40
2018-02-13T03:12:45.050Z,13.23
2018-02-13T03:15:13.313Z,10.80
2018-02-13T03:17:41.565Z,12.10
2018-02-13T03:20:10.994Z,14.20
2018-02-13T03:22:39.653Z,12.27
2018-02-13T03:25:09.959Z,14.60
2018-02-13T03:27:38.202Z,10.73
2018-02-13T03:30:09.147Z,12.90
2018-02-13T03:32:37.217Z,14.90
2018-02-13T03:35:07.321Z,13.50
2018-02-13T03:37:35.573Z,20.27
2018-02-13T03:40:03.817Z,11.87
2018-02-13T03:42:32.068Z,12.10
2018-02-13T03:45:00.313Z,12.00
2018-02-13T03:47:28.557Z,11.47
2018-02-13T03:49:56.816Z,14.90
2018-02-13T03:52:25.195Z,12.90
2018-02-13T03:54:53.444Z,13.90
2018-02-13T03:57:21.701Z,14.60
2018-02-13T03:59:49.997Z,12.77
2018-02-13T04:02:18.248Z,20.83
2018-02-13T04:04:46.524Z,12.70
2018-02-13T04:07:15.002Z,13.97
2018-02-13T04:09:43.270Z,13.30
2018-02-13T04:12:11.529Z,16.50
2018-02-13T04:14:39.784Z,14.87
2018-02-13T04:17:08.037Z,19.07
2018-02-13T04:19:36.302Z,15.57
2018-02-13T04:22:04.657Z,11.90
2018-02-13T04:24:32.926Z,16.27
2018-02-13T04:27:01.205Z,13.90
2018-02-13T04:29:29.446Z,15.17
2018-02-13T04:31:57.684Z,19.37
2018-02-13T04:34:25.945Z,19.53
2018-02-13T04:36:54.214Z,18.83
2018-02-13T04:39:22.460Z,17.30
2018-02-13T04:41:50.709Z,17.40
2018-02-13T04:44:19.569Z,19.07
2018-02-13T04:46:47.838Z,17.67
2018-02-13T04:49:16.097Z,19.97
2018-02-13T04:51:44.956Z,19.33
2018-02-13T04:54:13.227Z,18.50
2018-02-13T04:56:41.497Z,18.10
2018-02-13T04:59:09.762Z,14.43
2018-02-13T05:01:38.021Z,14.30
2018-02-13T05:04:06.276Z,16.90
2018-02-13T05:06:35.356Z,15.70
2018-02-13T05:09:03.426Z,16.13
2018-02-13T05:11:31.683Z,15.13
2018-02-13T05:13:59.925Z,17.13
2018-02-13T05:16:28.200Z,14.90
2018-02-13T05:18:56.453Z,17.00
2018-02-13T05:21:25.352Z,22.10
2018-02-13T05:23:53.615Z,164.20
2018-02-13T05:26:21.865Z,27.23
2018-02-13T05:28:50.129Z,17.07
2018-02-13T05:31:18.387Z,16.13
2018-02-13T05:33:46.646Z,18.43
2018-02-13T05:36:15.749Z,22.20
2018-02-13T05:38:43.996Z,17.87
2018-02-13T05:41:12.253Z,15.87
2018-02-13T05:43:40.509Z,18.30
2018-02-13T05:46:08.753Z,23.70
2018-02-13T05:48:37.002Z,19.90
2018-02-13T05:51:05.369Z,26.40
2018-02-13T05:53:34.792Z,18.00
2018-02-13T05:56:03.075Z,21.23
2018-02-13T05:58:31.334Z,32.40
2018-02-13T06:00:59.593Z,17.57
2018-02-13T06:03:27.859Z,67.70
2018-02-13T06:05:56.139Z,31.93
2018-02-13T06:08:24.382Z,17.90
2018-02-13T06:10:52.638Z,22.80
2018-02-13T06:13:20.902Z,16.40
2018-02-13T06:15:49.146Z,26.10
2018-02-13T06:18:17.393Z,37.20
2018-02-13T06:20:45.654Z,22.30
2018-02-13T06:23:13.910Z,24.20
2018-02-13T06:25:42.161Z,22.80
2018-02-13T06:28:10.410Z,38.23
2018-02-13T06:30:39.161Z,18.97
2018-02-13T06:33:07.437Z,20.33
2018-02-13T06:35:35.701Z,16.77
2018-02-13T06:38:03.951Z,19.83
2018-02-13T06:40:32.201Z,16.40
2018-02-13T06:43:00.482Z,14.40
2018-02-13T06:45:28.766Z,14.70
2018-02-13T06:47:57.012Z,16.80
2018-02-13T06:50:25.273Z,17.00
2018-02-13T06:52:53.560Z,12.60
2018-02-13T06:55:21.813Z,18.50
2018-02-13T06:57:50.100Z,19.50
2018-02-13T07:00:18.385Z,13.43
2018-02-13T07:02:46.692Z,20.30
2018-02-13T07:05:14.958Z,16.90
2018-02-13T07:07:43.296Z,16.73
2018-02-13T07:10:11.662Z,14.73
2018-02-13T07:12:39.919Z,14.87
2018-02-13T07:15:08.205Z,11.90
2018-02-13T07:17:36.449Z,16.07
2018-02-13T07:20:04.730Z,13.20
2018-02-13T07:22:32.994Z,20.93
2018-02-13T07:25:01.280Z,17.37
2018-02-13T07:27:29.550Z,15.10
2018-02-13T07:29:57.809Z,20.73
2018-02-13T07:32:26.082Z,20.63
2018-02-13T07:34:54.356Z,16.33
2018-02-13T07:37:22.621Z,17.30
2018-02-13T07:39:50.875Z,12.60
2018-02-13T07:42:19.134Z,15.83
2018-02-13T07:44:47.425Z,16.53
2018-02-13T07:47:15.527Z,14.30
2018-02-13T07:49:43.897Z,14.07
2018-02-13T07:52:12.165Z,18.37
2018-02-13T07:54:40.421Z,15.60
2018-02-13T07:57:08.670Z,17.87
2018-02-13T07:59:36.928Z,24.53
2018-02-13T08:02:05.189Z,13.80
2018-02-13T08:04:33.449Z,18.57
2018-02-13T08:07:01.689Z,14.73
2018-02-13T08:09:29.933Z,17.83
2018-02-13T08:11:58.188Z,14.80
2018-02-13T08:14:26.549Z,12.20
2018-02-13T08:16:54.792Z,11.30
2018-02-13T08:19:23.048Z,13.00
2018-02-13T08:21:51.285Z,8.83
2018-02-13T08:24:19.791Z,15.00
2018-02-13T08:26:48.052Z,9.77
2018-02-13T08:29:16.302Z,12.37
2018-02-13T08:31:44.548Z,12.80
2018-02-13T08:34:12.788Z,9.20
2018-02-13T08:36:41.053Z,18.70
2018-02-13T08:39:09.309Z,10.23
2018-02-13T08:41:37.565Z,10.30
2018-02-13T08:44:05.818Z,8.90
2018-02-13T08:46:35.002Z,12.57
2018-02-13T08:49:03.258Z,12.43
2018-02-13T08:51:31.497Z,10.47
2018-02-13T08:53:59.761Z,14.30
2018-02-13T08:56:27.838Z,14.30
2018-02-13T08:58:56.093Z,13.30
2018-02-13T09:01:24.153Z,12.57
2018-02-13T09:03:52.416Z,12.83
2018-02-13T09:06:20.712Z,18.97
2018-02-13T09:08:48.969Z,14.57
2018-02-13T09:11:17.225Z,8.40
2018-02-13T09:13:45.477Z,18.10
2018-02-13T09:16:13.725Z,15.40
2018-02-13T09:18:41.973Z,18.33
2018-02-13T09:21:10.237Z,41.30
2018-02-13T09:23:38.489Z,20.73
2018-02-13T09:26:07.314Z,34.87
2018-02-13T09:28:35.579Z,10.57
2018-02-13T09:31:03.844Z,15.90
2018-02-13T09:33:32.096Z,18.13
2018-02-13T09:36:00.349Z,14.00
2018-02-13T09:38:28.649Z,14.57
2018-02-13T09:40:56.908Z,16.70
2018-02-13T09:43:25.163Z,12.53
2018-02-13T09:45:53.406Z,26.97
2018-02-13T09:48:23.680Z,10.20
2018-02-13T09:50:51.940Z,12.83
2018-02-13T09:53:20.524Z,13.83
2018-02-13T09:55:48.766Z,20.70
2018-02-13T09:58:17.962Z,13.13
2018-02-13T10:00:46.229Z,13.43
2018-02-13T10:03:14.548Z,19.93
2018-02-13T10:05:42.962Z,10.33
2018-02-13T10:08:11.206Z,16.00
2018-02-13T10:10:39.461Z,20.40
2018-02-13T10:13:07.724Z,11.93
2018-02-13T10:15:35.992Z,14.50
2018-02-13T10:18:04.566Z,11.87
2018-02-13T10:20:32.624Z,18.10
2018-02-13T10:23:00.887Z,13.17
2018-02-13T10:25:29.138Z,11.60
2018-02-13T10:27:57.386Z,12.50
2018-02-13T10:30:25.845Z,20.73
2018-02-13T10:32:54.098Z,15.67
2018-02-13T10:35:22.354Z,10.90
2018-02-13T10:37:50.600Z,21.57
2018-02-13T10:40:18.849Z,15.03
2018-02-13T10:42:47.109Z,9.60
2018-02-13T10:45:16.148Z,32.53
2018-02-13T10:47:44.466Z,25.87
2018-02-13T10:50:13.367Z,12.27
2018-02-13T10:52:41.607Z,14.73
2018-02-13T10:55:11.402Z,13.50
2018-02-13T10:57:39.646Z,12.60
2018-02-13T11:00:09.653Z,12.13
2018-02-13T11:02:37.896Z,14.00
2018-02-13T11:05:08.569Z,12.20
2018-02-13T11:07:37.429Z,12.57
2018-02-13T11:10:07.986Z,9.07
2018-02-13T11:12:36.262Z,15.03
2018-02-13T11:15:04.006Z,24.87
2018-02-13T11:17:32.074Z,18.33
2018-02-13T11:20:00.156Z,15.03
2018-02-13T11:22:28.437Z,9.60
2018-02-13T11:24:56.686Z,11.17
2018-02-13T11:27:24.958Z,10.83
2018-02-13T11:29:53.346Z,17.23
2018-02-13T11:32:21.607Z,18.77
2018-02-13T11:34:50.602Z,12.63
2018-02-13T11:37:18.962Z,16.53
2018-02-13T11:39:47.217Z,11.83
2018-02-13T11:42:15.481Z,8.63
2018-02-13T11:44:43.728Z,18.87
2018-02-13T11:47:11.977Z,19.50
2018-02-13T11:49:41.149Z,19.20
2018-02-13T11:52:09.432Z,14.43
2018-02-13T11:54:38.505Z,16.37
2018-02-13T11:57:06.748Z,11.67
2018-02-13T11:59:34.991Z,17.67
2018-02-13T12:02:03.238Z,17.27
2018-02-13T12:04:31.501Z,18.17
2018-02-13T12:06:59.772Z,14.40
2018-02-13T12:09:28.039Z,23.10
2018-02-13T12:11:56.318Z,15.03
2018-02-13T12:14:24.617Z,13.93
2018-02-13T12:16:52.889Z,14.27
2018-02-13T12:19:21.157Z,12.73
2018-02-13T12:21:49.408Z,13.37
2018-02-13T12:24:17.669Z,13.03
2018-02-13T12:26:46.170Z,11.90
2018-02-13T12:29:14.417Z,10.10
2018-02-13T12:31:42.717Z,19.23
2018-02-13T12:34:10.920Z,6.60
2018-02-13T12:36:39.165Z,14.50
2018-02-13T12:39:07.068Z,12.17
2018-02-13T12:41:35.133Z,15.80
2018-02-13T12:44:03.028Z,10.90
2018-02-13T12:46:32.022Z,10.50
2018-02-13T12:49:00.323Z,12.60
2018-02-13T12:51:28.412Z,10.10
2018-02-13T12:53:56.882Z,11.80
2018-02-13T12:56:24.842Z,20.80
2018-02-13T12:58:53.185Z,18.80
2018-02-13T13:01:21.437Z,12.50
2018-02-13T13:03:49.534Z,17.03
2018-02-13T13:06:18.570Z,15.03
2018-02-13T13:08:46.825Z,13.70
2018-02-13T13:11:15.074Z,9.23
2018-02-13T13:13:43.323Z,10.47
2018-02-13T13:16:11.805Z,11.33
2018-02-13T13:18:40.058Z,13.13
2018-02-13T13:21:08.618Z,12.53
2018-02-13T13:23:36.917Z,10.57
2018-02-13T13:26:05.169Z,12.33
2018-02-13T13:28:34.488Z,16.67
2018-02-13T13:31:02.749Z,8.83
2018-02-13T13:33:31.004Z,12.07
2018-02-13T13:35:59.753Z,11.30
2018-02-13T13:38:28.005Z,12.03
2018-02-13T13:40:57.046Z,13.87
2018-02-13T13:43:25.296Z,8.47
2018-02-13T13:45:54.183Z,23.67
2018-02-13T13:48:22.904Z,17.13
2018-02-13T13:50:51.153Z,8.57
2018-02-13T13:53:19.453Z,13.17
2018-02-13T13:55:47.706Z,8.23
2018-02-13T13:58:15.962Z,10.20
2018-02-13T14:00:45.721Z,4.13
2018-02-13T14:03:14.521Z,3.93
2018-02-13T14:05:42.762Z,8.73
2018-02-13T14:08:11.023Z,4.97
2018-02-13T14:10:39.316Z,8.53
2018-02-13T14:13:07.569Z,5.80
2018-02-13T14:15:35.842Z,5.40
2018-02-13T14:18:03.920Z,6.30
2018-02-13T14:20:32.202Z,10.13
2018-02-13T14:23:00.190Z,17.03
2018-02-13T14:25:28.945Z,11.07
2018-02-13T14:27:56.859Z,7.50
2018-02-13T14:30:26.290Z,8.30
2018-02-13T14:32:54.543Z,8.17
2018-02-13T14:35:22.789Z,7.03
2018-02-13T14:37:51.769Z,9.90
2018-02-13T14:40:20.013Z,11.63
2018-02-13T14:42:48.269Z,11.63
2018-02-13T14:45:17.084Z,9.10
2018-02-13T14:47:45.328Z,12.77
2018-02-13T14:50:13.382Z,8.83
2018-02-13T14:52:42.566Z,10.03
2018-02-13T14:55:10.817Z,14.50
2018-02-13T14:57:39.066Z,10.50
2018-02-13T15:00:08.953Z,16.30
2018-02-13T15:02:37.208Z,13.00
2018-02-13T15:05:06.137Z,12.47
2018-02-13T15:07:36.804Z,14.53
2018-02-13T15:10:06.557Z,11.30
2018-02-13T15:12:34.644Z,13.53
2018-02-13T15:15:03.403Z,12.70
2018-02-13T15:17:36.990Z,15.77
2018-02-13T15:20:07.154Z,23.10
2018-02-13T15:22:35.423Z,14.37
2018-02-13T15:25:04.493Z,20.37
2018-02-13T15:27:32.774Z,13.53
2018-02-13T15:30:01.034Z,16.53
2018-02-13T15:32:29.146Z,18.83
2018-02-13T15:34:57.400Z,16.67
2018-02-13T15:37:25.670Z,19.27
2018-02-13T15:39:53.923Z,22.53
2018-02-13T15:42:22.182Z,20.30
2018-02-13T15:44:50.442Z,28.73
2018-02-13T15:47:18.949Z,25.63
2018-02-13T15:49:47.279Z,23.53
2018-02-13T15:52:15.533Z,19.23
2018-02-13T15:54:43.818Z,22.17
2018-02-13T15:57:12.069Z,20.60
2018-02-13T15:59:40.328Z,31.47
2018-02-13T16:02:08.597Z,21.20
2018-02-13T16:04:36.851Z,19.27
2018-02-13T16:07:05.136Z,23.07
2018-02-13T16:09:33.385Z,17.77
2018-02-13T16:12:01.461Z,16.47
2018-02-13T16:14:29.724Z,17.90
2018-02-13T16:16:57.985Z,18.10
2018-02-13T16:19:26.249Z,18.97
2018-02-13T16:21:54.518Z,20.13
2018-02-13T16:24:24.061Z,20.70
2018-02-13T16:26:52.325Z,17.80
2018-02-13T16:29:20.569Z,18.93
2018-02-13T16:31:48.825Z,17.70
2018-02-13T16:34:17.088Z,16.57
2018-02-13T16:36:45.399Z,20.67
2018-02-13T16:39:13.657Z,20.73
2018-02-13T16:41:41.378Z,18.70
2018-02-13T16:44:09.821Z,22.27
2018-02-13T16:46:38.086Z,19.17
2018-02-13T16:49:06.338Z,19.80
2018-02-13T16:51:34.588Z,16.40
2018-02-13T16:54:02.859Z,21.77
2018-02-13T16:56:31.112Z,21.57
2018-02-13T16:58:59.380Z,14.73
2018-02-13T17:01:28.278Z,20.90
2018-02-13T17:04:05.943Z,23.63
2018-02-13T17:06:34.194Z,17.03
2018-02-13T17:09:02.262Z,33.10
2018-02-13T17:11:30.523Z,29.73
2018-02-13T17:13:59.419Z,26.13
2018-02-13T17:16:28.364Z,21.07
2018-02-13T17:18:56.624Z,22.63
2018-02-13T17:21:24.881Z,24.10
2018-02-13T17:23:53.136Z,30.20
2018-02-13T17:26:21.405Z,23.43
2018-02-13T17:28:50.240Z,23.87
2018-02-13T17:31:18.501Z,22.80
2018-02-13T17:33:46.768Z,20.00
2018-02-13T17:36:15.022Z,19.40
2018-02-13T17:38:43.298Z,24.10
2018-02-13T17:41:11.548Z,30.00
2018-02-13T17:43:39.813Z,22.03
2018-02-13T17:46:09.521Z,23.33
2018-02-13T17:48:37.773Z,24.20
2018-02-13T17:51:06.033Z,25.17
2018-02-13T17:53:34.298Z,35.40
2018-02-13T17:56:02.753Z,24.10
2018-02-13T17:58:31.004Z,24.80
2018-02-13T18:01:00.240Z,24.90
2018-02-13T18:03:28.510Z,25.70
2018-02-13T18:05:56.773Z,25.03
2018-02-13T18:08:25.033Z,22.37
2018-02-13T18:10:53.289Z,26.87
2018-02-13T18:13:21.897Z,26.20
2018-02-13T18:15:50.260Z,28.30
2018-02-13T18:18:18.517Z,23.80
2018-02-13T18:20:47.393Z,27.13
2018-02-13T18:23:16.273Z,24.60
2018-02-13T18:25:44.520Z,35.13
2018-02-13T18:28:12.777Z,28.60
2018-02-13T18:30:41.137Z,31.60
2018-02-13T18:33:09.760Z,30.83
2018-02-13T18:35:38.009Z,18.23
2018-02-13T18:38:06.257Z,25.80
2018-02-13T18:40:34.518Z,25.30
2018-02-13T18:43:02.775Z,25.27
2018-02-13T18:45:31.025Z,29.63
2018-02-13T18:47:59.719Z,28.33
2018-02-13T18:50:27.988Z,34.30
2018-02-13T18:55:25.738Z,31.73
2018-02-13T18:57:53.982Z,31.87
2018-02-13T19:00:22.238Z,35.83
2018-02-13T19:02:50.484Z,31.10
2018-02-13T19:05:18.756Z,36.30
2018-02-13T19:07:47.704Z,43.37
2018-02-13T19:10:15.954Z,38.00
2018-02-13T19:12:44.217Z,30.80
2018-02-13T19:15:12.611Z,37.67
2018-02-13T19:17:40.877Z,33.07
2018-02-13T19:20:09.139Z,31.27
2018-02-13T19:22:37.418Z,30.77
2018-02-13T19:25:05.697Z,34.37
2018-02-13T19:27:33.977Z,30.23
2018-02-13T19:30:02.233Z,29.07
2018-02-13T19:32:30.511Z,34.80
2018-02-13T19:34:58.785Z,30.30
2018-02-13T19:37:27.040Z,42.50
2018-02-13T19:39:55.309Z,26.90
2018-02-13T19:42:23.561Z,32.40
2018-02-13T19:44:51.808Z,30.57
2018-02-13T19:47:20.074Z,34.10
2018-02-13T19:49:48.428Z,32.23
2018-02-13T19:52:18.117Z,33.90
2018-02-13T19:54:46.788Z,25.47
2018-02-13T19:57:15.045Z,25.23
2018-02-13T19:59:43.315Z,27.23
2018-02-13T20:02:11.578Z,33.77
2018-02-13T20:04:39.829Z,28.43
2018-02-13T20:07:08.190Z,29.87
2018-02-13T20:09:36.450Z,33.30
2018-02-13T20:12:04.717Z,28.13
2018-02-13T20:14:32.976Z,29.70
2018-02-13T20:17:01.229Z,27.00
2018-02-13T20:19:29.497Z,41.50
2018-02-13T20:21:57.754Z,35.40
2018-02-13T20:24:26.022Z,33.37
2018-02-13T20:26:54.277Z,29.63
2018-02-13T20:29:23.128Z,36.90
2018-02-13T20:31:51.385Z,31.07
2018-02-13T20:34:19.643Z,50.47
2018-02-13T20:36:47.914Z,36.13
2018-02-13T20:39:16.162Z,29.80
2018-02-13T20:41:44.421Z,26.70
2018-02-13T20:44:12.675Z,35.17
2018-02-13T20:46:40.924Z,31.20
2018-02-13T20:49:09.485Z,34.80
2018-02-13T20:51:37.749Z,34.00
2018-02-13T20:54:06.006Z,32.80
2018-02-13T20:56:33.937Z,36.70
2018-02-13T20:59:02.340Z,35.13
2018-02-13T21:01:30.709Z,32.80
2018-02-13T21:03:59.207Z,29.70
2018-02-13T21:06:28.283Z,32.57
2018-02-13T21:08:56.538Z,31.30
2018-02-13T21:11:24.806Z,33.77
2018-02-13T21:13:53.902Z,35.30
2018-02-13T21:16:22.164Z,39.00
2018-02-13T21:18:51.773Z,32.07
2018-02-13T21:21:20.256Z,39.77
2018-02-13T21:23:48.510Z,33.10
2018-02-13T21:26:17.759Z,36.13
2018-02-13T21:28:46.465Z,33.50
2018-02-13T21:31:15.288Z,32.13
2018-02-13T21:33:44.422Z,32.63
2018-02-13T21:36:12.222Z,33.43
2018-02-13T21:38:40.479Z,29.60
2018-02-13T21:41:09.047Z,32.50
2018-02-13T21:43:37.901Z,29.80
2018-02-13T21:46:07.953Z,35.60
2018-02-13T21:48:36.218Z,35.17
2018-02-13T21:51:04.506Z,29.40
2018-02-13T21:53:32.771Z,36.67
2018-02-13T21:56:01.033Z,36.63
2018-02-13T21:58:29.328Z,33.20
2018-02-13T22:00:57.579Z,31.13
2018-02-13T22:03:25.843Z,36.20
2018-02-13T22:05:54.447Z,39.10
2018-02-13T22:08:23.450Z,45.93
2018-02-13T22:10:52.174Z,38.50
2018-02-13T22:13:19.746Z,39.33
2018-02-13T22:15:47.985Z,43.67
2018-02-13T22:18:16.175Z,39.17
2018-02-13T22:20:44.441Z,40.30
2018-02-13T22:23:12.713Z,41.97
2018-02-13T22:25:41.046Z,44.60
2018-02-13T22:28:09.297Z,43.30
2018-02-13T22:30:37.584Z,40.43
2018-02-13T22:33:05.871Z,45.10
2018-02-13T22:35:34.141Z,44.20
2018-02-13T22:38:02.442Z,41.00
2018-02-13T22:40:30.717Z,42.00
2018-02-13T22:42:58.981Z,46.00
2018-02-13T22:45:27.234Z,38.67
2018-02-13T22:47:55.490Z,50.07
2018-02-13T22:50:23.748Z,47.23
2018-02-13T22:52:52.005Z,48.97
2018-02-13T22:55:20.270Z,46.90
2018-02-13T22:57:48.523Z,42.90
2018-02-13T23:00:22.482Z,47.67
2018-02-13T23:02:50.737Z,45.00
2018-02-13T23:05:18.649Z,47.80
2018-02-13T23:07:46.907Z,54.50
2018-02-13T23:10:15.165Z,44.23
2018-02-13T23:12:43.422Z,52.80
2018-02-13T23:15:11.696Z,52.07
2018-02-13T23:17:41.516Z,47.17
2018-02-13T23:20:12.928Z,42.10
2018-02-13T23:22:41.540Z,48.13
2018-02-13T23:25:09.790Z,48.07
2018-02-13T23:27:38.044Z,51.50
2018-02-13T23:30:10.882Z,54.50
2018-02-13T23:32:39.727Z,61.43
2018-02-13T23:35:09.390Z,53.73
2018-02-13T23:37:37.656Z,51.30
2018-02-13T23:40:08.061Z,44.57
2018-02-13T23:42:36.318Z,53.87
2018-02-13T23:45:07.907Z,52.03
2018-02-13T23:47:36.160Z,53.43
2018-02-13T23:50:04.411Z,44.97
2018-02-13T23:52:32.957Z,49.63
2018-02-13T23:55:01.219Z,51.23
2018-02-13T23:57:29.918Z,44.93
2018-02-13T23:59:58.817Z,54.93
